This is the latest recevied weather packets stored in our database for station/object N6XE-13. If no packets are shown the sender has not sent any weather packets the latest 10 day(s).
| Time | Temp. | Humidity | Pressure | Rain* | Wind** | Luminosity | Snow |
|---|---|---|---|---|---|---|---|
| 1777770006 | 22.78° C | 63% | 1012.1 hPa | 0 mm | - | - | - |
| 1777768206 | 22.78° C | 61% | 1012 hPa | 0 mm | - | - | - |
| 1777766405 | 23.33° C | 58% | 1012.2 hPa | 0 mm | - | - | - |
| 1777764605 | 22.78° C | 59% | 1012.5 hPa | 0 mm | - | - | - |
| 1777762805 | 23.33° C | 58% | 1013.1 hPa | 0 mm | - | - | - |
| 1777761005 | 22.22° C | 59% | 1013.5 hPa | 0 mm | - | - | - |
| 1777759205 | 22.22° C | 60% | 1013.9 hPa | 0 mm | - | - | - |
| 1777757406 | 22.78° C | 59% | 1014.2 hPa | 0 mm | - | - | - |
| 1777755605 | 23.89° C | 59% | 1014.5 hPa | 0 mm | - | - | - |
| 1777753805 | 21.67° C | 62% | 1014.8 hPa | 0 mm | - | - | - |
| 1777752005 | 21.11° C | 62% | 1015 hPa | 0 mm | - | - | - |
| 1777750205 | 21.67° C | 63% | 1015.1 hPa | 0 mm | - | - | - |
| 1777746605 | 20.56° C | 66% | 1015.2 hPa | 0 mm | - | - | - |
| 1777744805 | 20° C | 69% | 1015.3 hPa | 0 mm | - | - | - |
| 1777743006 | 17.78° C | 78% | 1015.3 hPa | 0 mm | - | - | - |
| 1777741205 | 17.78° C | 77% | 1015.2 hPa | 0 mm | - | - | - |
| 1777739405 | 17.22° C | 82% | 1014.9 hPa | 0 mm | - | - | - |
| 1777737605 | 16.11° C | 84% | 1014.8 hPa | 0 mm | - | - | - |
| 1777735805 | 15.56° C | 88% | 1014.7 hPa | 0 mm | - | - | - |
| 1777734006 | 13.89° C | 93% | 1014.7 hPa | 0 mm | - | - | - |
| 1777732206 | 13.89° C | 94% | 1014.5 hPa | 0 mm | - | - | - |
| 1777730406 | 13.33° C | 97% | 1014.1 hPa | 0 mm | - | - | - |
| 1777728606 | 12.78° C | 98% | 1013.9 hPa | 0 mm | - | - | - |
| 1777726805 | 12.78° C | 98% | 1013.7 hPa | 0 mm | - | - | - |
| 1777725005 | 12.78° C | 98% | 1013.6 hPa | 0 mm | - | - | - |
* Rain latest hour (hover to see other rain measurements)
** Current wind speed in m/s (hover to see current wind gust speed)